createdAt,value
2019-02-11T00:01:11.986Z,4.61
2019-02-11T00:03:41.238Z,4.65
2019-02-11T00:06:10.548Z,4.66
2019-02-11T00:08:39.788Z,4.66
2019-02-11T00:11:09.025Z,4.66
2019-02-11T00:13:38.274Z,4.69
2019-02-11T00:16:07.576Z,4.71
2019-02-11T00:18:36.827Z,4.73
2019-02-11T00:21:06.078Z,4.74
2019-02-11T00:23:35.324Z,4.74
2019-02-11T00:26:04.618Z,4.76
2019-02-11T00:28:33.914Z,4.79
2019-02-11T00:31:03.192Z,4.76
2019-02-11T00:33:32.484Z,4.80
2019-02-11T00:36:01.746Z,4.81
2019-02-11T00:38:31.004Z,4.82
2019-02-11T00:41:00.281Z,4.84
2019-02-11T00:43:29.527Z,4.84
2019-02-11T00:45:58.754Z,4.88
2019-02-11T00:48:28.004Z,4.88
2019-02-11T00:50:57.339Z,4.89
2019-02-11T00:53:26.593Z,4.90
2019-02-11T00:55:55.922Z,4.90
2019-02-11T00:58:25.233Z,4.88
2019-02-11T01:00:54.632Z,4.91
2019-02-11T01:03:23.925Z,4.89
2019-02-11T01:05:53.216Z,4.89
2019-02-11T01:08:22.586Z,4.91
2019-02-11T01:10:51.843Z,4.91
2019-02-11T01:13:27.442Z,4.90
2019-02-11T01:15:50.383Z,4.93
2019-02-11T01:18:19.638Z,4.94
2019-02-11T01:20:48.927Z,4.95
2019-02-11T01:23:18.184Z,4.95
2019-02-11T01:25:47.506Z,4.95
2019-02-11T01:28:16.819Z,4.96
2019-02-11T01:30:46.136Z,4.95
2019-02-11T01:33:15.450Z,4.96
2019-02-11T01:35:44.742Z,4.96
2019-02-11T01:38:13.994Z,4.93
2019-02-11T01:40:43.254Z,4.90
2019-02-11T01:43:12.487Z,4.93
2019-02-11T01:45:41.806Z,4.69
2019-02-11T01:48:11.044Z,4.91
2019-02-11T01:50:40.383Z,4.94
2019-02-11T01:53:09.648Z,4.93
2019-02-11T01:55:38.991Z,4.91
2019-02-11T01:58:08.268Z,4.74
2019-02-11T02:00:37.582Z,4.74
2019-02-11T02:03:06.851Z,4.69
2019-02-11T02:05:36.228Z,4.67
2019-02-11T02:08:05.482Z,4.70
2019-02-11T02:10:34.776Z,4.71
2019-02-11T02:13:04.076Z,4.73
2019-02-11T02:15:33.421Z,4.71
2019-02-11T02:18:02.632Z,4.73
2019-02-11T02:20:31.912Z,4.77
2019-02-11T02:23:01.163Z,4.74
2019-02-11T02:25:30.438Z,4.76
2019-02-11T02:27:59.775Z,4.79
2019-02-11T02:30:29.731Z,4.82
2019-02-11T02:32:58.953Z,4.78
2019-02-11T02:35:28.315Z,4.80
2019-02-11T02:37:57.714Z,4.81
2019-02-11T02:40:26.981Z,4.79
2019-02-11T02:42:56.282Z,4.80
2019-02-11T02:45:25.550Z,4.79
2019-02-11T02:47:54.798Z,4.78
2019-02-11T02:50:24.220Z,4.80
2019-02-11T02:52:53.486Z,4.82
2019-02-11T02:55:22.825Z,4.85
2019-02-11T02:57:52.199Z,4.85
2019-02-11T03:00:21.504Z,4.87
2019-02-11T03:02:50.858Z,4.88
2019-02-11T03:05:20.105Z,4.90
2019-02-11T03:07:49.423Z,4.90
2019-02-11T03:10:18.663Z,4.94
2019-02-11T03:12:47.913Z,4.95
2019-02-11T03:15:17.207Z,4.97
2019-02-11T03:17:46.520Z,4.97
2019-02-11T03:20:15.827Z,4.99
2019-02-11T03:22:45.077Z,4.95
2019-02-11T03:25:14.356Z,4.98
2019-02-11T03:27:43.732Z,5.01
2019-02-11T03:30:13.141Z,5.02
2019-02-11T03:32:42.436Z,5.03
2019-02-11T03:35:11.820Z,5.00
2019-02-11T03:37:41.120Z,5.04
2019-02-11T03:40:10.396Z,5.08
2019-02-11T03:42:39.742Z,5.07
2019-02-11T03:45:09.752Z,5.06
2019-02-11T03:47:38.995Z,5.06
2019-02-11T03:50:08.848Z,5.06
2019-02-11T03:52:38.087Z,5.08
2019-02-11T03:55:07.387Z,5.06
2019-02-11T03:57:36.650Z,5.06
2019-02-11T04:00:06.709Z,5.05
2019-02-11T04:02:35.957Z,5.02
2019-02-11T04:05:05.900Z,5.04
2019-02-11T04:07:35.187Z,5.08
2019-02-11T04:10:05.211Z,5.09
2019-02-11T04:12:34.465Z,5.05
2019-02-11T04:15:03.931Z,5.01
2019-02-11T04:17:33.235Z,5.03
2019-02-11T04:20:02.705Z,5.00
2019-02-11T04:22:31.993Z,4.99
2019-02-11T04:25:01.254Z,5.00
2019-02-11T04:27:30.486Z,5.01
2019-02-11T04:29:59.823Z,4.99
2019-02-11T04:32:29.107Z,4.99
2019-02-11T04:34:58.387Z,5.01
2019-02-11T04:37:27.693Z,5.02
2019-02-11T04:39:57.049Z,5.04
2019-02-11T04:42:26.286Z,4.99
2019-02-11T04:44:55.563Z,4.99
2019-02-11T04:47:24.826Z,5.04
2019-02-11T04:49:54.167Z,5.02
2019-02-11T04:52:23.530Z,5.00
2019-02-11T04:54:52.824Z,5.04
2019-02-11T04:57:22.209Z,5.06
2019-02-11T04:59:51.491Z,5.07
2019-02-11T05:02:20.745Z,5.08
2019-02-11T05:04:50.046Z,5.08
2019-02-11T05:07:19.286Z,5.08
2019-02-11T05:09:48.616Z,5.10
2019-02-11T05:12:17.854Z,5.15
2019-02-11T05:14:47.122Z,5.17
2019-02-11T05:17:16.393Z,5.17
2019-02-11T05:19:45.722Z,5.16
2019-02-11T05:22:14.944Z,5.14
2019-02-11T05:24:44.209Z,5.10
2019-02-11T05:27:13.495Z,5.12
2019-02-11T05:29:42.786Z,5.12
2019-02-11T05:32:12.038Z,5.13
2019-02-11T05:34:41.311Z,5.10
2019-02-11T05:37:10.598Z,5.10
2019-02-11T05:39:39.914Z,5.07
2019-02-11T05:42:09.164Z,5.06
2019-02-11T05:44:38.455Z,5.08
2019-02-11T05:47:07.677Z,5.08
2019-02-11T05:49:36.971Z,5.06
2019-02-11T05:52:06.211Z,5.08
2019-02-11T05:54:35.602Z,5.04
2019-02-11T05:57:04.920Z,5.03
2019-02-11T05:59:34.220Z,5.02
2019-02-11T06:02:03.535Z,5.05
2019-02-11T06:04:33.098Z,5.03
2019-02-11T06:07:02.599Z,5.02
2019-02-11T06:09:31.872Z,5.00
2019-02-11T06:12:01.141Z,5.00
2019-02-11T06:14:30.456Z,5.00
2019-02-11T06:16:59.751Z,4.98
2019-02-11T06:19:29.115Z,5.00
2019-02-11T06:21:58.405Z,4.93
2019-02-11T06:24:27.739Z,4.90
2019-02-11T06:26:57.070Z,4.94
2019-02-11T06:29:26.453Z,4.90
2019-02-11T06:31:55.725Z,4.91
2019-02-11T06:34:25.111Z,4.96
2019-02-11T06:36:54.370Z,4.92
2019-02-11T06:39:23.700Z,4.90
2019-02-11T06:41:53.024Z,4.91
2019-02-11T06:44:22.682Z,4.92
2019-02-11T06:46:51.924Z,4.94
2019-02-11T06:49:21.438Z,4.90
2019-02-11T06:51:50.724Z,4.93
2019-02-11T06:54:20.231Z,4.93
2019-02-11T06:56:49.604Z,4.89
2019-02-11T06:59:19.132Z,4.94
2019-02-11T07:01:48.383Z,4.95
2019-02-11T07:04:17.691Z,4.93
2019-02-11T07:06:46.979Z,4.95
2019-02-11T07:09:16.240Z,5.04
2019-02-11T07:11:45.581Z,5.22
2019-02-11T07:14:14.897Z,5.12
2019-02-11T07:16:44.184Z,5.11
2019-02-11T07:19:13.476Z,5.08
2019-02-11T07:21:42.740Z,5.05
2019-02-11T07:24:12.003Z,5.04
2019-02-11T07:26:41.313Z,4.99
2019-02-11T07:29:10.585Z,4.97
2019-02-11T07:31:39.854Z,4.95
2019-02-11T07:34:09.199Z,4.95
2019-02-11T07:36:38.484Z,4.93
2019-02-11T07:39:09.376Z,4.89
2019-02-11T07:42:00.739Z,4.92
2019-02-11T07:44:34.958Z,4.86
2019-02-11T07:47:04.743Z,4.79
2019-02-11T07:49:33.998Z,4.75
2019-02-11T07:52:03.271Z,4.74
2019-02-11T07:54:32.575Z,4.76
2019-02-11T07:57:01.866Z,4.76
2019-02-11T07:59:31.157Z,4.73
2019-02-11T08:02:00.390Z,4.69
2019-02-11T08:04:29.798Z,4.74
2019-02-11T08:06:59.145Z,4.68
2019-02-11T08:09:28.498Z,4.69
2019-02-11T08:11:58.030Z,4.66
2019-02-11T08:14:27.304Z,4.69
2019-02-11T08:16:56.593Z,4.74
2019-02-11T08:19:25.951Z,4.81
2019-02-11T08:21:55.217Z,4.82
2019-02-11T08:24:24.462Z,4.80
2019-02-11T08:26:53.759Z,4.80
2019-02-11T08:29:23.042Z,4.79
2019-02-11T08:31:52.288Z,4.87
2019-02-11T08:34:21.586Z,4.93
2019-02-11T08:36:50.900Z,3.86
2019-02-11T08:39:20.167Z,4.89
2019-02-11T08:41:49.479Z,4.90
2019-02-11T08:44:18.745Z,4.90
2019-02-11T08:46:48.029Z,4.89
2019-02-11T08:49:17.357Z,4.94
2019-02-11T08:51:46.671Z,5.02
2019-02-11T08:54:15.964Z,5.03
2019-02-11T08:56:45.353Z,5.16
2019-02-11T08:59:14.638Z,5.39
2019-02-11T09:01:43.862Z,5.57
2019-02-11T09:04:18.779Z,5.69
2019-02-11T09:06:42.559Z,5.62
2019-02-11T09:09:11.842Z,5.57
2019-02-11T09:11:41.084Z,5.63
2019-02-11T09:14:10.382Z,5.70
2019-02-11T09:16:39.783Z,5.77
2019-02-11T09:19:09.115Z,5.66
2019-02-11T09:21:38.446Z,5.72
2019-02-11T09:24:07.709Z,5.63
2019-02-11T09:26:37.110Z,5.56
2019-02-11T09:29:06.391Z,5.63
2019-02-11T09:31:35.781Z,5.86
2019-02-11T09:34:05.079Z,5.82
2019-02-11T09:36:34.392Z,5.69
2019-02-11T09:39:03.855Z,5.67
2019-02-11T09:41:33.101Z,5.73
2019-02-11T09:44:02.430Z,5.82
2019-02-11T09:46:31.702Z,5.86
2019-02-11T09:49:00.986Z,5.91
2019-02-11T09:51:30.756Z,5.96
2019-02-11T09:54:00.118Z,5.88
2019-02-11T09:56:29.487Z,5.85
2019-02-11T09:58:58.810Z,5.93
2019-02-11T10:01:28.228Z,5.92
2019-02-11T10:03:57.498Z,5.91
2019-02-11T10:06:26.888Z,6.05
2019-02-11T10:08:56.185Z,6.14
2019-02-11T10:11:25.484Z,6.29
2019-02-11T10:13:54.827Z,6.34
2019-02-11T10:16:24.198Z,6.56
2019-02-11T10:18:53.461Z,6.61
2019-02-11T10:21:22.800Z,6.50
2019-02-11T10:23:52.060Z,6.41
2019-02-11T10:26:21.362Z,6.41
2019-02-11T10:28:50.708Z,6.38
2019-02-11T10:31:20.006Z,6.44
2019-02-11T10:33:49.274Z,6.53
2019-02-11T10:36:18.758Z,6.30
2019-02-11T10:38:48.116Z,6.36
2019-02-11T10:41:17.747Z,6.42
2019-02-11T10:43:47.032Z,6.44
2019-02-11T10:46:21.103Z,6.45
2019-02-11T10:48:45.724Z,6.52
2019-02-11T10:51:15.010Z,6.52
2019-02-11T10:53:44.298Z,6.57
2019-02-11T10:56:13.563Z,6.56
2019-02-11T10:58:42.944Z,6.51
2019-02-11T11:01:13.405Z,6.54
2019-02-11T11:03:41.593Z,6.55
2019-02-11T11:06:10.938Z,6.57
2019-02-11T11:08:40.323Z,6.58
2019-02-11T11:11:09.660Z,6.71
2019-02-11T11:13:38.978Z,6.63
2019-02-11T11:16:08.293Z,6.86
2019-02-11T11:18:37.645Z,6.86
2019-02-11T11:21:07.047Z,7.05
2019-02-11T11:23:36.369Z,7.31
2019-02-11T11:26:05.679Z,7.31
2019-02-11T11:28:34.975Z,7.31
2019-02-11T11:31:04.230Z,7.13
2019-02-11T11:33:33.549Z,7.00
2019-02-11T11:36:02.881Z,6.95
2019-02-11T11:38:32.154Z,7.61
2019-02-11T11:41:01.612Z,7.61
2019-02-11T11:43:30.968Z,7.55
2019-02-11T11:46:00.273Z,7.53
2019-02-11T11:48:29.567Z,7.90
2019-02-11T11:50:58.883Z,7.70
2019-02-11T11:53:28.123Z,7.35
2019-02-11T11:56:01.950Z,7.21
2019-02-11T11:58:27.286Z,8.73
2019-02-11T12:00:56.181Z,8.73
2019-02-11T12:03:25.331Z,8.93
2019-02-11T12:05:54.673Z,8.95
2019-02-11T12:08:24.092Z,8.45
2019-02-11T12:10:53.441Z,8.69
2019-02-11T12:13:23.636Z,8.42
2019-02-11T12:15:52.095Z,8.59
2019-02-11T12:18:21.385Z,8.27
2019-02-11T12:20:50.705Z,8.30
2019-02-11T12:23:20.129Z,7.92
2019-02-11T12:25:49.271Z,7.89
2019-02-11T12:28:18.698Z,7.47
2019-02-11T12:30:48.019Z,7.36
2019-02-11T12:33:17.416Z,7.36
2019-02-11T12:35:46.691Z,7.47
2019-02-11T12:38:16.088Z,7.65
2019-02-11T12:40:45.459Z,7.54
2019-02-11T12:43:14.723Z,7.33
2019-02-11T12:45:44.134Z,7.33
2019-02-11T12:48:13.442Z,6.82
2019-02-11T12:50:42.719Z,6.82
2019-02-11T12:53:12.019Z,6.50
2019-02-11T12:55:41.270Z,7.21
2019-02-11T12:58:10.581Z,7.08
2019-02-11T13:00:39.911Z,6.99
2019-02-11T13:03:09.186Z,6.99
2019-02-11T13:05:44.775Z,7.00
2019-02-11T13:08:07.944Z,7.04
2019-02-11T13:10:37.237Z,6.93
2019-02-11T13:13:07.307Z,6.88
2019-02-11T13:15:58.758Z,5.90
2019-02-11T13:18:05.187Z,6.86
2019-02-11T13:20:34.538Z,6.85
2019-02-11T13:23:03.879Z,6.69
2019-02-11T13:25:33.290Z,6.73
2019-02-11T13:28:02.708Z,6.87
2019-02-11T13:30:32.146Z,6.82
2019-02-11T13:33:01.380Z,6.73
2019-02-11T13:35:30.666Z,7.22
2019-02-11T13:37:59.939Z,7.70
2019-02-11T13:40:29.316Z,7.93
2019-02-11T13:43:05.209Z,8.24
2019-02-11T13:45:34.548Z,8.52
2019-02-11T13:48:04.012Z,8.54
2019-02-11T13:50:33.380Z,8.26
2019-02-11T13:53:02.703Z,8.01
2019-02-11T13:55:32.286Z,7.12
2019-02-11T13:58:01.420Z,7.12
2019-02-11T14:00:34.467Z,6.98
2019-02-11T14:03:05.217Z,6.73
2019-02-11T14:05:34.724Z,6.50
2019-02-11T14:08:04.088Z,6.39
2019-02-11T14:10:33.380Z,7.10
2019-02-11T14:13:05.674Z,7.74
2019-02-11T14:15:35.680Z,7.83
2019-02-11T14:18:14.826Z,8.32
2019-02-11T14:20:42.237Z,8.85
2019-02-11T14:23:11.650Z,8.58
2019-02-11T14:25:45.906Z,8.62
2019-02-11T14:28:10.377Z,7.88
2019-02-11T14:30:40.481Z,7.09
2019-02-11T14:33:09.770Z,6.86
2019-02-11T14:35:39.195Z,6.63
2019-02-11T14:38:08.479Z,6.33
2019-02-11T14:40:37.898Z,6.21
2019-02-11T14:43:07.133Z,6.33
2019-02-11T14:45:36.443Z,6.71
2019-02-11T14:48:05.866Z,7.01
2019-02-11T14:50:35.266Z,7.20
2019-02-11T14:53:04.648Z,7.02
2019-02-11T14:55:34.330Z,6.60
2019-02-11T14:58:03.704Z,6.44
2019-02-11T15:00:33.071Z,6.29
2019-02-11T15:03:02.408Z,6.53
2019-02-11T15:05:31.792Z,6.87
2019-02-11T15:08:01.048Z,7.01
2019-02-11T15:10:30.399Z,7.16
2019-02-11T15:12:59.726Z,7.02
2019-02-11T15:15:29.310Z,6.70
2019-02-11T15:17:58.810Z,6.50
2019-02-11T15:20:28.236Z,6.21
2019-02-11T15:22:57.505Z,5.95
2019-02-11T15:25:26.797Z,5.93
2019-02-11T15:27:56.093Z,5.87
2019-02-11T15:30:25.436Z,5.75
2019-02-11T15:32:54.767Z,5.80
2019-02-11T15:35:24.093Z,5.85
2019-02-11T15:37:53.376Z,5.86
2019-02-11T15:40:23.117Z,5.86
2019-02-11T15:42:52.387Z,5.84
2019-02-11T15:45:21.682Z,5.75
2019-02-11T15:47:51.045Z,5.69
2019-02-11T15:50:20.381Z,5.68
2019-02-11T15:52:49.714Z,5.55
2019-02-11T15:55:19.304Z,5.54
2019-02-11T15:57:48.643Z,5.49
2019-02-11T16:00:19.665Z,5.39
2019-02-11T16:02:48.998Z,5.43
2019-02-11T16:05:18.317Z,5.35
2019-02-11T16:07:47.686Z,5.31
2019-02-11T16:10:19.026Z,5.22
2019-02-11T16:12:48.316Z,5.17
2019-02-11T16:15:19.209Z,5.15
2019-02-11T16:17:46.833Z,5.11
2019-02-11T16:20:16.089Z,5.04
2019-02-11T16:22:45.445Z,5.01
2019-02-11T16:25:14.751Z,4.98
2019-02-11T16:27:44.172Z,4.95
2019-02-11T16:30:15.365Z,4.92
2019-02-11T16:32:44.726Z,4.88
2019-02-11T16:35:14.793Z,4.91
2019-02-11T16:37:44.085Z,4.88
2019-02-11T16:40:16.085Z,4.82
2019-02-11T16:42:45.352Z,4.82
2019-02-11T16:45:14.633Z,4.83
2019-02-11T16:47:43.985Z,4.83
2019-02-11T16:50:13.266Z,4.79
2019-02-11T16:52:42.668Z,4.78
2019-02-11T16:55:11.960Z,4.77
2019-02-11T16:57:41.229Z,4.77
2019-02-11T17:00:12.743Z,4.74
2019-02-11T17:02:42.031Z,4.76
2019-02-11T17:05:11.347Z,4.71
2019-02-11T17:07:42.210Z,4.67
2019-02-11T17:10:10.867Z,4.67
2019-02-11T17:12:40.163Z,4.62
2019-02-11T17:15:11.613Z,4.56
2019-02-11T17:17:40.909Z,4.59
2019-02-11T17:20:11.036Z,4.57
2019-02-11T17:22:40.278Z,4.56
2019-02-11T17:25:09.816Z,4.62
2019-02-11T17:27:39.173Z,4.60
2019-02-11T17:30:11.513Z,4.61
2019-02-11T17:32:40.811Z,4.64
2019-02-11T17:35:10.225Z,4.66
2019-02-11T17:37:39.517Z,4.64
2019-02-11T17:40:11.631Z,4.66
2019-02-11T17:42:39.039Z,4.65
2019-02-11T17:45:12.367Z,4.65
2019-02-11T17:47:41.647Z,4.67
2019-02-11T17:50:11.252Z,4.70
2019-02-11T17:52:40.537Z,4.72
2019-02-11T17:55:10.657Z,4.75
2019-02-11T17:57:39.979Z,4.70
2019-02-11T18:00:12.751Z,4.47
2019-02-11T18:02:42.061Z,4.43
2019-02-11T18:05:11.339Z,4.34
2019-02-11T18:07:40.585Z,4.26
2019-02-11T18:10:09.836Z,4.12
2019-02-11T18:12:39.180Z,4.13
2019-02-11T18:15:08.809Z,4.03
2019-02-11T18:17:38.077Z,4.01
2019-02-11T18:20:07.482Z,3.99
2019-02-11T18:22:36.790Z,3.95
2019-02-11T18:25:06.157Z,3.97
2019-02-11T18:27:35.524Z,3.95
2019-02-11T18:30:05.059Z,3.94
2019-02-11T18:32:34.393Z,4.00
2019-02-11T18:35:03.775Z,3.98
2019-02-11T18:37:33.069Z,4.04
2019-02-11T18:40:02.378Z,4.11
2019-02-11T18:42:31.711Z,4.15
2019-02-11T18:45:01.018Z,4.21
2019-02-11T18:47:30.281Z,4.22
2019-02-11T18:49:59.513Z,4.19
2019-02-11T18:52:28.809Z,4.20
2019-02-11T18:54:58.081Z,4.15
2019-02-11T18:57:27.392Z,4.14
2019-02-11T18:59:56.709Z,4.22
2019-02-11T19:02:25.985Z,4.17
2019-02-11T19:04:55.303Z,4.12
2019-02-11T19:07:24.582Z,4.13
2019-02-11T19:09:53.898Z,4.21
2019-02-11T19:12:23.127Z,4.22
2019-02-11T19:14:52.379Z,4.22
2019-02-11T19:17:21.813Z,4.23
2019-02-11T19:19:51.105Z,4.23
2019-02-11T19:22:22.293Z,4.20
2019-02-11T19:24:49.908Z,4.20
2019-02-11T19:27:19.161Z,4.19
2019-02-11T19:29:48.443Z,4.19
2019-02-11T19:32:17.714Z,4.16
2019-02-11T19:34:47.156Z,4.14
2019-02-11T19:37:16.404Z,4.16
2019-02-11T19:39:45.669Z,4.18
2019-02-11T19:42:15.000Z,4.20
2019-02-11T19:44:44.283Z,4.25
2019-02-11T19:47:32.877Z,4.23
2019-02-11T19:50:02.092Z,4.19
2019-02-11T19:52:31.383Z,4.18
2019-02-11T19:55:00.671Z,4.23
2019-02-11T19:57:29.955Z,4.13
2019-02-11T19:59:59.428Z,4.14
2019-02-11T20:02:29.608Z,4.15
2019-02-11T20:04:58.949Z,4.11
2019-02-11T20:07:28.397Z,4.11
2019-02-11T20:09:57.707Z,4.02
2019-02-11T20:12:27.117Z,4.02
2019-02-11T20:14:59.938Z,3.99
2019-02-11T20:17:29.318Z,3.95
2019-02-11T20:20:00.361Z,3.89
2019-02-11T20:22:27.922Z,3.84
2019-02-11T20:24:57.290Z,3.83
2019-02-11T20:27:26.613Z,3.85
2019-02-11T20:29:55.836Z,3.85
2019-02-11T20:32:25.451Z,3.84
2019-02-11T20:34:54.825Z,3.81
2019-02-11T20:37:24.067Z,3.78
2019-02-11T20:39:53.286Z,3.81
2019-02-11T20:42:24.403Z,3.83
2019-02-11T20:44:53.737Z,3.83
2019-02-11T20:47:22.960Z,3.84
2019-02-11T20:49:52.201Z,3.83
2019-02-11T20:52:21.449Z,3.87
2019-02-11T20:54:50.736Z,3.83
2019-02-11T20:57:20.057Z,3.82
2019-02-11T20:59:49.463Z,3.77
2019-02-11T21:02:18.538Z,3.82
2019-02-11T21:04:47.938Z,3.79
2019-02-11T21:07:17.247Z,3.82
2019-02-11T21:09:46.755Z,3.82
2019-02-11T21:12:16.096Z,3.77
2019-02-11T21:14:45.335Z,3.82
2019-02-11T21:17:14.571Z,3.83
2019-02-11T21:19:43.849Z,4.45
2019-02-11T21:22:13.119Z,4.47
2019-02-11T21:24:42.329Z,4.08
2019-02-11T21:27:12.023Z,3.85
2019-02-11T21:29:41.253Z,3.85
2019-02-11T21:32:10.619Z,3.79
2019-02-11T21:34:43.679Z,3.86
2019-02-11T21:37:12.980Z,3.83
2019-02-11T21:39:42.232Z,3.83
2019-02-11T21:42:11.582Z,3.82
2019-02-11T21:44:40.859Z,3.81
2019-02-11T21:47:10.094Z,3.83
2019-02-11T21:49:39.353Z,3.81
2019-02-11T21:52:08.665Z,3.83
2019-02-11T21:54:37.921Z,3.79
2019-02-11T21:57:26.728Z,3.82
2019-02-11T21:59:55.981Z,3.79
2019-02-11T22:02:25.326Z,3.80
2019-02-11T22:04:54.635Z,3.85
2019-02-11T22:07:23.928Z,3.82
2019-02-11T22:09:53.234Z,3.84
2019-02-11T22:12:22.461Z,3.79
2019-02-11T22:14:51.759Z,3.81
2019-02-11T22:17:21.003Z,3.84
2019-02-11T22:19:50.243Z,3.79
2019-02-11T22:22:19.533Z,3.81
2019-02-11T22:24:48.791Z,3.81
2019-02-11T22:27:18.037Z,3.78
2019-02-11T22:29:47.337Z,3.78
2019-02-11T22:32:16.638Z,3.83
2019-02-11T22:34:45.943Z,3.83
2019-02-11T22:37:15.183Z,3.87
2019-02-11T22:39:44.377Z,3.87
2019-02-11T22:42:13.649Z,3.89
2019-02-11T22:44:42.941Z,3.89
2019-02-11T22:47:12.247Z,3.82
2019-02-11T22:49:41.634Z,3.84
2019-02-11T22:52:10.881Z,3.82
2019-02-11T22:54:40.235Z,3.81
2019-02-11T22:57:09.541Z,3.79
2019-02-11T22:59:38.790Z,3.77
2019-02-11T23:02:08.028Z,3.73
2019-02-11T23:04:37.329Z,3.74
2019-02-11T23:07:06.574Z,3.76
2019-02-11T23:09:35.807Z,3.81
2019-02-11T23:12:05.080Z,3.82
2019-02-11T23:14:34.341Z,3.87
2019-02-11T23:17:03.651Z,3.90
2019-02-11T23:19:32.937Z,3.92
2019-02-11T23:22:02.162Z,3.93
2019-02-11T23:24:31.412Z,3.98
2019-02-11T23:27:00.753Z,3.98
2019-02-11T23:29:30.053Z,3.96
2019-02-11T23:31:59.289Z,4.01
2019-02-11T23:34:28.547Z,4.00
2019-02-11T23:36:57.803Z,4.04
2019-02-11T23:39:27.242Z,4.10
2019-02-11T23:41:56.540Z,4.09
2019-02-11T23:44:25.837Z,4.13
2019-02-11T23:46:55.060Z,4.17
2019-02-11T23:49:24.390Z,4.16
2019-02-11T23:51:53.629Z,4.14
2019-02-11T23:54:23.007Z,4.15
2019-02-11T23:56:52.243Z,4.16
2019-02-11T23:59:21.593Z,4.15
